createdAt,value
2022-09-03T00:01:01.942Z,1.40
2022-09-03T00:03:44.763Z,1.63
2022-09-03T00:06:17.723Z,1.67
2022-09-03T00:09:01.838Z,1.63
2022-09-03T00:11:41.149Z,1.77
2022-09-03T00:14:34.368Z,1.90
2022-09-03T00:17:08.833Z,1.90
2022-09-03T00:19:44.796Z,1.70
2022-09-03T00:22:22.097Z,1.92
2022-09-03T00:24:50.409Z,1.83
2022-09-03T00:27:28.264Z,2.15
2022-09-03T00:30:01.521Z,2.17
2022-09-03T00:32:39.386Z,1.90
2022-09-03T00:35:14.082Z,2.00
2022-09-03T00:37:42.089Z,2.22
2022-09-03T00:40:26.140Z,2.20
2022-09-03T00:43:05.277Z,2.00
2022-09-03T00:45:59.149Z,2.50
2022-09-03T00:48:33.643Z,2.58
2022-09-03T00:51:18.981Z,1.85
2022-09-03T00:54:01.012Z,2.28
2022-09-03T00:56:49.932Z,1.95
2022-09-03T00:59:31.151Z,2.13
2022-09-03T01:02:31.308Z,2.15
2022-09-03T01:05:11.863Z,2.00
2022-09-03T01:08:06.792Z,1.63
2022-09-03T01:10:46.219Z,1.70
2022-09-03T01:13:30.612Z,2.20
2022-09-03T01:16:16.011Z,2.25
2022-09-03T01:18:58.073Z,2.40
2022-09-03T01:21:30.596Z,2.17
2022-09-03T01:24:09.242Z,2.55
2022-09-03T01:27:15.634Z,2.40
2022-09-03T01:30:17.166Z,1.90
2022-09-03T01:32:56.660Z,1.85
2022-09-03T01:36:05.535Z,2.03
2022-09-03T01:38:43.559Z,1.95
2022-09-03T01:41:41.145Z,1.88
2022-09-03T01:44:15.008Z,2.10
2022-09-03T01:46:46.003Z,1.88
2022-09-03T01:49:32.623Z,1.90
2022-09-03T01:52:11.517Z,1.83
2022-09-03T01:55:07.007Z,1.90
2022-09-03T01:57:52.829Z,1.90
2022-09-03T02:00:20.981Z,1.70
2022-09-03T02:02:52.652Z,1.77
2022-09-03T02:05:24.868Z,1.85
2022-09-03T02:07:58.241Z,1.83
2022-09-03T02:10:36.031Z,1.70
2022-09-03T02:13:15.851Z,1.90
2022-09-03T02:15:46.359Z,1.73
2022-09-03T02:18:24.239Z,1.75
2022-09-03T02:20:54.238Z,1.58
2022-09-03T02:23:27.697Z,1.70
2022-09-03T02:26:01.976Z,1.60
2022-09-03T02:28:31.574Z,1.50
2022-09-03T02:30:58.878Z,1.83
2022-09-03T02:33:26.786Z,1.83
2022-09-03T02:35:55.381Z,2.03
2022-09-03T02:38:26.670Z,2.28
2022-09-03T02:40:54.609Z,2.60
2022-09-03T02:43:31.256Z,2.13
2022-09-03T02:46:03.017Z,1.60
2022-09-03T02:48:30.123Z,1.75
2022-09-03T02:50:57.355Z,1.90
2022-09-03T02:53:24.348Z,1.77
2022-09-03T02:55:51.699Z,1.90
2022-09-03T02:58:18.703Z,1.55
2022-09-03T03:00:45.837Z,1.55
2022-09-03T03:03:12.895Z,1.42
2022-09-03T03:05:46.180Z,1.83
2022-09-03T03:08:15.415Z,1.70
2022-09-03T03:10:46.282Z,1.55
2022-09-03T03:13:13.775Z,2.03
2022-09-03T03:15:41.351Z,1.90
2022-09-03T03:18:12.001Z,2.20
2022-09-03T03:20:39.988Z,2.40
2022-09-03T03:23:08.050Z,2.13
2022-09-03T03:25:37.482Z,2.05
2022-09-03T03:28:05.711Z,1.60
2022-09-03T03:30:34.203Z,1.95
2022-09-03T03:33:01.611Z,1.85
2022-09-03T03:35:28.647Z,1.83
2022-09-03T03:37:58.621Z,1.73
2022-09-03T03:40:26.368Z,1.77
2022-09-03T03:42:53.801Z,2.00
2022-09-03T03:45:20.997Z,1.90
2022-09-03T03:47:48.033Z,1.90
2022-09-03T03:50:15.595Z,1.60
2022-09-03T03:52:43.246Z,1.95
2022-09-03T03:55:10.458Z,1.83
2022-09-03T03:57:37.500Z,1.60
2022-09-03T04:00:05.346Z,1.70
2022-09-03T04:02:38.512Z,1.65
2022-09-03T04:05:06.704Z,1.70
2022-09-03T04:07:35.213Z,1.83
2022-09-03T04:10:02.432Z,1.67
2022-09-03T04:12:29.610Z,1.75
2022-09-03T04:14:56.734Z,1.90
2022-09-03T04:17:25.340Z,1.70
2022-09-03T04:19:52.732Z,1.85
2022-09-03T04:22:20.828Z,2.00
2022-09-03T04:24:48.023Z,1.70
2022-09-03T04:27:15.236Z,1.80
2022-09-03T04:29:42.379Z,1.83
2022-09-03T04:32:27.692Z,2.10
2022-09-03T04:34:54.715Z,1.90
2022-09-03T04:37:21.882Z,1.50
2022-09-03T04:39:49.167Z,1.50
2022-09-03T04:42:16.273Z,1.63
2022-09-03T04:44:43.412Z,1.60
2022-09-03T04:47:10.555Z,1.48
2022-09-03T04:49:37.547Z,1.55
2022-09-03T04:52:04.689Z,1.80
2022-09-03T04:54:31.851Z,1.50
2022-09-03T04:56:58.934Z,1.77
2022-09-03T04:59:26.040Z,1.80
2022-09-03T05:01:53.229Z,2.20
2022-09-03T05:04:20.395Z,2.00
2022-09-03T05:06:47.463Z,1.83
2022-09-03T05:09:14.711Z,1.63
2022-09-03T05:11:41.726Z,1.58
2022-09-03T05:14:12.700Z,1.90
2022-09-03T05:16:42.799Z,1.48
2022-09-03T05:19:19.779Z,1.85
2022-09-03T05:21:46.812Z,1.67
2022-09-03T05:24:15.580Z,1.60
2022-09-03T05:26:42.684Z,1.60
2022-09-03T05:29:09.917Z,1.85
2022-09-03T05:31:41.934Z,1.95
2022-09-03T05:34:16.709Z,2.00
2022-09-03T05:36:47.093Z,1.80
2022-09-03T05:39:14.115Z,1.70
2022-09-03T05:41:41.264Z,1.67
2022-09-03T05:44:08.345Z,1.50
2022-09-03T05:46:37.931Z,1.70
2022-09-03T05:49:06.781Z,1.63
2022-09-03T05:51:35.845Z,1.50
2022-09-03T05:54:04.081Z,1.50
2022-09-03T05:56:32.749Z,1.58
2022-09-03T05:59:02.321Z,1.50
2022-09-03T06:01:31.945Z,1.83
2022-09-03T06:04:04.937Z,1.70
2022-09-03T06:06:35.696Z,1.83
2022-09-03T06:09:05.947Z,2.40
2022-09-03T06:11:34.910Z,3.00
2022-09-03T06:14:05.901Z,2.70
2022-09-03T06:16:35.408Z,2.83
2022-09-03T06:19:07.292Z,3.10
2022-09-03T06:21:35.253Z,3.37
2022-09-03T06:24:03.252Z,3.40
2022-09-03T06:26:30.353Z,2.73
2022-09-03T06:28:58.127Z,2.87
2022-09-03T06:31:25.874Z,2.60
2022-09-03T06:33:54.782Z,3.10
2022-09-03T06:36:23.951Z,2.80
2022-09-03T06:38:55.941Z,2.73
2022-09-03T06:41:26.826Z,3.10
2022-09-03T06:43:59.218Z,3.07
2022-09-03T06:46:26.505Z,3.77
2022-09-03T06:48:54.542Z,3.92
2022-09-03T06:51:24.716Z,3.15
2022-09-03T06:53:54.734Z,2.38
2022-09-03T06:56:27.170Z,2.40
2022-09-03T06:58:59.498Z,2.77
2022-09-03T07:01:32.330Z,2.60
2022-09-03T07:04:02.119Z,2.60
2022-09-03T07:06:37.292Z,2.42
2022-09-03T07:09:07.598Z,1.92
2022-09-03T07:11:36.089Z,2.40
2022-09-03T07:14:05.031Z,2.63
2022-09-03T07:16:38.617Z,2.13
2022-09-03T07:19:07.004Z,2.05
2022-09-03T07:21:44.043Z,2.08
2022-09-03T07:24:15.483Z,2.10
2022-09-03T07:26:49.671Z,2.03
2022-09-03T07:29:20.798Z,1.83
2022-09-03T07:31:51.959Z,1.83
2022-09-03T07:34:22.094Z,1.80
2022-09-03T07:36:51.826Z,1.88
2022-09-03T07:39:19.940Z,2.03
2022-09-03T07:41:47.649Z,1.77
2022-09-03T07:44:16.435Z,1.98
2022-09-03T07:46:46.243Z,2.13
2022-09-03T07:49:14.216Z,2.15
2022-09-03T07:51:41.652Z,2.22
2022-09-03T07:54:11.411Z,2.13
2022-09-03T07:56:42.745Z,1.40
2022-09-03T07:59:10.286Z,1.65
2022-09-03T08:01:39.157Z,1.60
2022-09-03T08:04:10.072Z,1.70
2022-09-03T08:06:38.253Z,1.85
2022-09-03T08:09:07.391Z,1.70
2022-09-03T08:11:38.036Z,1.73
2022-09-03T08:14:06.931Z,1.50
2022-09-03T08:16:36.194Z,1.77
2022-09-03T08:19:03.711Z,1.48
2022-09-03T08:21:31.220Z,1.60
2022-09-03T08:24:04.818Z,1.70
2022-09-03T08:26:36.613Z,1.70
2022-09-03T08:29:04.749Z,1.50
2022-09-03T08:31:32.874Z,1.60
2022-09-03T08:34:05.944Z,1.88
2022-09-03T08:36:34.387Z,1.50
2022-09-03T08:39:10.220Z,1.73
2022-09-03T08:41:43.677Z,1.38
2022-09-03T08:44:14.127Z,1.27
2022-09-03T08:46:51.818Z,1.38
2022-09-03T08:49:32.196Z,1.75
2022-09-03T08:52:02.364Z,1.52
2022-09-03T08:54:31.323Z,1.50
2022-09-03T08:57:01.662Z,1.55
2022-09-03T08:59:33.012Z,1.27
2022-09-03T09:02:16.292Z,1.50
2022-09-03T09:04:46.709Z,1.30
2022-09-03T09:07:40.399Z,1.33
2022-09-03T09:10:14.334Z,1.33
2022-09-03T09:12:46.460Z,1.40
2022-09-03T09:15:21.082Z,1.10
2022-09-03T09:18:00.398Z,1.38
2022-09-03T09:20:46.504Z,1.40
2022-09-03T09:23:32.037Z,1.30
2022-09-03T09:26:01.872Z,1.20
2022-09-03T09:28:35.767Z,1.13
2022-09-03T09:31:04.723Z,1.23
2022-09-03T09:33:33.062Z,1.30
2022-09-03T09:36:04.044Z,1.20
2022-09-03T09:38:32.791Z,1.30
2022-09-03T09:41:10.162Z,1.20
2022-09-03T09:43:39.139Z,1.30
2022-09-03T09:46:17.507Z,1.23
2022-09-03T09:48:54.969Z,1.15
2022-09-03T09:51:23.785Z,1.40
2022-09-03T09:54:10.478Z,1.00
2022-09-03T09:56:37.943Z,1.40
2022-09-03T09:59:09.232Z,1.00
2022-09-03T10:01:41.226Z,1.30
2022-09-03T10:04:33.157Z,0.90
2022-09-03T10:07:21.146Z,1.45
2022-09-03T10:09:59.027Z,1.10
2022-09-03T10:12:50.147Z,1.02
2022-09-03T10:15:28.486Z,1.00
2022-09-03T10:18:10.675Z,1.35
2022-09-03T10:20:55.673Z,1.20
2022-09-03T10:23:28.489Z,1.20
2022-09-03T10:26:00.749Z,1.25
2022-09-03T10:28:29.703Z,1.25
2022-09-03T10:30:59.876Z,1.60
2022-09-03T10:33:42.459Z,1.52
2022-09-03T10:36:20.201Z,1.60
2022-09-03T10:38:52.007Z,1.85
2022-09-03T10:41:26.107Z,1.48
2022-09-03T10:43:59.644Z,1.50
2022-09-03T10:46:28.330Z,1.50
2022-09-03T10:49:14.447Z,1.63
2022-09-03T10:51:50.623Z,2.00
2022-09-03T10:54:27.232Z,1.80
2022-09-03T10:57:03.006Z,1.90
2022-09-03T10:59:43.084Z,1.55
2022-09-03T11:02:22.017Z,1.88
2022-09-03T11:04:52.453Z,1.65
2022-09-03T11:07:25.136Z,1.67
2022-09-03T11:09:55.255Z,1.95
2022-09-03T11:12:27.975Z,1.50
2022-09-03T11:14:58.275Z,1.30
2022-09-03T11:17:32.175Z,1.50
2022-09-03T11:20:05.670Z,1.45
2022-09-03T11:22:34.005Z,1.40
2022-09-03T11:25:03.128Z,1.58
2022-09-03T11:27:36.423Z,1.13
2022-09-03T11:30:08.555Z,1.10
2022-09-03T11:32:55.404Z,1.20
2022-09-03T11:35:28.585Z,1.17
2022-09-03T11:38:00.512Z,1.40
2022-09-03T11:40:38.358Z,1.20
2022-09-03T11:43:13.123Z,1.20
2022-09-03T11:45:41.055Z,1.10
2022-09-03T11:48:30.062Z,1.20
2022-09-03T11:50:57.475Z,1.13
2022-09-03T11:53:34.697Z,1.20
2022-09-03T11:56:08.421Z,1.25
2022-09-03T11:58:40.625Z,1.30
2022-09-03T12:01:18.975Z,0.82
2022-09-03T12:03:50.830Z,1.10
2022-09-03T12:06:33.509Z,0.95
2022-09-03T12:09:19.718Z,1.25
2022-09-03T12:11:58.477Z,0.95
2022-09-03T12:14:32.943Z,1.17
2022-09-03T12:17:15.386Z,0.90
2022-09-03T12:19:58.991Z,1.00
2022-09-03T12:22:28.982Z,1.20
2022-09-03T12:24:57.202Z,1.00
2022-09-03T12:27:26.318Z,1.17
2022-09-03T12:30:00.262Z,0.95
2022-09-03T12:32:30.988Z,1.00
2022-09-03T12:34:58.553Z,1.05
2022-09-03T12:40:19.430Z,1.13
2022-09-03T12:42:46.949Z,1.00
2022-09-03T12:45:15.996Z,0.90
2022-09-03T12:47:45.236Z,0.93
2022-09-03T12:50:17.202Z,0.90
2022-09-03T12:52:54.811Z,0.90
2022-09-03T12:55:27.115Z,1.05
2022-09-03T12:58:05.021Z,1.00
2022-09-03T13:00:34.524Z,1.00
2022-09-03T13:03:08.555Z,1.00
2022-09-03T13:05:44.786Z,0.95
2022-09-03T13:08:16.373Z,1.20
2022-09-03T13:10:44.454Z,1.10
2022-09-03T13:13:23.853Z,0.90
2022-09-03T13:16:15.659Z,0.93
2022-09-03T13:18:46.123Z,0.80
2022-09-03T13:21:17.012Z,0.90
2022-09-03T13:23:50.262Z,0.80
2022-09-03T13:26:20.694Z,0.98
2022-09-03T13:29:08.373Z,0.90
2022-09-03T13:31:41.666Z,1.00
2022-09-03T13:34:13.074Z,1.00
2022-09-03T13:36:52.195Z,1.00
2022-09-03T13:39:19.667Z,0.95
2022-09-03T13:41:47.101Z,1.02
2022-09-03T13:44:20.703Z,0.90
2022-09-03T13:47:01.267Z,0.88
2022-09-03T13:50:02.273Z,1.00
2022-09-03T13:52:30.491Z,1.00
2022-09-03T13:55:04.160Z,1.00
2022-09-03T13:57:31.698Z,0.90
2022-09-03T14:00:04.690Z,0.90
2022-09-03T14:02:51.643Z,0.90
2022-09-03T14:05:48.155Z,1.13
2022-09-03T14:08:15.578Z,1.17
2022-09-03T14:10:55.087Z,0.90
2022-09-03T14:13:37.841Z,1.02
2022-09-03T14:16:10.795Z,1.10
2022-09-03T14:18:56.442Z,1.10
2022-09-03T14:21:26.492Z,1.00
2022-09-03T14:24:02.325Z,0.93
2022-09-03T14:26:39.593Z,1.10
2022-09-03T14:29:14.332Z,1.20
2022-09-03T14:31:41.829Z,1.00
2022-09-03T14:34:14.122Z,1.00
2022-09-03T14:36:59.995Z,1.00
2022-09-03T14:39:46.432Z,0.85
2022-09-03T14:42:22.197Z,0.90
2022-09-03T14:44:49.728Z,1.10
2022-09-03T14:47:20.133Z,0.77
2022-09-03T14:50:04.275Z,0.88
2022-09-03T14:52:31.748Z,0.80
2022-09-03T14:55:15.008Z,1.10
2022-09-03T14:58:01.204Z,1.00
2022-09-03T15:00:43.664Z,1.02
2022-09-03T15:03:20.331Z,0.90
2022-09-03T15:05:53.812Z,0.80
2022-09-03T15:08:30.294Z,1.00
2022-09-03T15:11:02.006Z,1.10
2022-09-03T15:13:35.466Z,1.02
2022-09-03T15:16:28.189Z,0.98
2022-09-03T15:19:10.734Z,1.13
2022-09-03T15:21:57.343Z,1.15
2022-09-03T15:24:44.077Z,0.90
2022-09-03T15:27:21.578Z,0.90
2022-09-03T15:30:08.008Z,1.10
2022-09-03T15:32:57.066Z,0.95
2022-09-03T15:35:43.268Z,1.00
2022-09-03T15:38:20.448Z,1.05
2022-09-03T15:40:47.947Z,1.10
2022-09-03T15:43:32.493Z,1.25
2022-09-03T15:46:02.069Z,1.15
2022-09-03T15:48:59.782Z,1.20
2022-09-03T15:51:27.126Z,1.17
2022-09-03T15:53:57.570Z,1.10
2022-09-03T15:56:31.911Z,0.93
2022-09-03T15:59:17.913Z,0.80
2022-09-03T16:01:48.599Z,0.90
2022-09-03T16:04:35.007Z,1.00
2022-09-03T16:07:22.508Z,1.10
2022-09-03T16:10:25.951Z,1.10
2022-09-03T16:13:14.737Z,0.90
2022-09-03T16:15:49.050Z,1.17
2022-09-03T16:18:22.855Z,1.02
2022-09-03T16:21:00.078Z,1.00
2022-09-03T16:23:47.590Z,0.95
2022-09-03T16:26:19.843Z,1.00
2022-09-03T16:28:50.281Z,1.08
2022-09-03T16:31:23.873Z,1.13
2022-09-03T16:33:51.262Z,1.23
2022-09-03T16:36:21.685Z,0.80
2022-09-03T16:39:15.433Z,0.88
2022-09-03T16:41:43.508Z,1.08
2022-09-03T16:44:50.788Z,1.00
2022-09-03T16:47:21.757Z,0.93
2022-09-03T16:49:51.939Z,1.02
2022-09-03T16:52:33.539Z,0.88
2022-09-03T16:55:13.853Z,1.15
2022-09-03T16:57:44.328Z,1.13
2022-09-03T17:00:13.540Z,0.90
2022-09-03T17:02:58.994Z,1.15
2022-09-03T17:05:47.839Z,0.73
2022-09-03T17:08:28.208Z,0.88
2022-09-03T17:11:04.428Z,0.85
2022-09-03T17:13:45.900Z,0.80
2022-09-03T17:16:24.646Z,0.90
2022-09-03T17:19:11.236Z,0.90
2022-09-03T17:21:38.859Z,0.90
2022-09-03T17:24:06.420Z,0.93
2022-09-03T17:26:40.726Z,0.85
2022-09-03T17:29:26.795Z,0.70
2022-09-03T17:32:12.073Z,1.00
2022-09-03T17:34:52.264Z,0.95
2022-09-03T17:37:25.305Z,0.70
2022-09-03T17:40:12.968Z,0.73
2022-09-03T17:42:40.421Z,0.80
2022-09-03T17:45:11.173Z,1.05
2022-09-03T17:47:57.056Z,0.77
2022-09-03T17:50:26.945Z,0.90
2022-09-03T17:52:58.025Z,0.88
2022-09-03T17:55:31.026Z,0.93
2022-09-03T17:58:04.876Z,0.80
2022-09-03T18:00:50.801Z,0.73
2022-09-03T18:03:21.950Z,0.95
2022-09-03T18:06:12.033Z,0.90
2022-09-03T18:08:51.299Z,0.90
2022-09-03T18:11:30.882Z,1.35
2022-09-03T18:14:20.095Z,0.95
2022-09-03T18:16:58.772Z,0.90
2022-09-03T18:19:52.613Z,0.98
2022-09-03T18:22:40.201Z,0.80
2022-09-03T18:25:27.520Z,1.00
2022-09-03T18:28:17.881Z,1.08
2022-09-03T18:31:04.200Z,1.10
2022-09-03T18:33:50.398Z,1.17
2022-09-03T18:36:36.462Z,1.30
2022-09-03T18:39:30.407Z,1.00
2022-09-03T18:42:39.885Z,1.00
2022-09-03T18:45:37.323Z,1.23
2022-09-03T18:48:47.335Z,1.20
2022-09-03T18:51:45.331Z,1.35
2022-09-03T18:55:07.444Z,1.20
2022-09-03T18:58:03.243Z,0.90
2022-09-03T19:00:50.332Z,1.15
2022-09-03T19:03:47.631Z,1.00
2022-09-03T19:06:53.168Z,1.23
2022-09-03T19:10:01.203Z,1.13
2022-09-03T19:13:22.199Z,1.30
2022-09-03T19:16:18.444Z,1.35
2022-09-03T19:19:22.845Z,1.30
2022-09-03T19:22:12.052Z,1.35
2022-09-03T19:24:57.803Z,1.30
2022-09-03T19:27:59.902Z,1.20
2022-09-03T19:30:52.476Z,1.38
2022-09-03T19:33:44.274Z,1.65
2022-09-03T19:36:53.063Z,1.45
2022-09-03T19:39:54.452Z,1.20
2022-09-03T19:42:43.068Z,1.50
2022-09-03T19:45:36.969Z,1.30
2022-09-03T19:48:41.904Z,1.45
2022-09-03T19:51:49.104Z,1.15
2022-09-03T19:54:36.652Z,1.30
2022-09-03T19:57:22.738Z,1.30
2022-09-03T20:00:09.366Z,1.50
2022-09-03T20:02:55.590Z,1.33
2022-09-03T20:05:42.262Z,1.13
2022-09-03T20:08:29.379Z,1.35
2022-09-03T20:10:59.164Z,1.38
2022-09-03T20:13:26.531Z,1.45
2022-09-03T20:16:12.754Z,1.50
2022-09-03T20:18:46.172Z,1.23
2022-09-03T20:21:16.676Z,1.42
2022-09-03T20:23:50.132Z,1.27
2022-09-03T20:26:20.501Z,1.10
2022-09-03T20:28:54.074Z,1.40
2022-09-03T20:31:28.966Z,1.52
2022-09-03T20:34:14.780Z,1.52
2022-09-03T20:37:02.954Z,1.58
2022-09-03T20:39:55.010Z,1.60
2022-09-03T20:42:25.363Z,1.55
2022-09-03T20:44:58.913Z,1.50
2022-09-03T20:47:28.030Z,1.50
2022-09-03T20:50:15.018Z,1.63
2022-09-03T20:53:05.185Z,1.58
2022-09-03T20:55:41.347Z,1.60
2022-09-03T20:58:16.978Z,1.60
2022-09-03T21:00:51.135Z,1.50
2022-09-03T21:03:30.876Z,1.50
2022-09-03T21:06:09.242Z,1.60
2022-09-03T21:08:46.348Z,2.13
2022-09-03T21:11:19.664Z,2.42
2022-09-03T21:14:07.292Z,2.95
2022-09-03T21:16:53.293Z,2.80
2022-09-03T21:19:40.043Z,2.22
2022-09-03T21:22:29.332Z,1.95
2022-09-03T21:24:59.309Z,1.60
2022-09-03T21:27:32.423Z,1.65
2022-09-03T21:30:10.316Z,1.60
2022-09-03T21:32:48.868Z,1.63
2022-09-03T21:35:23.407Z,1.48
2022-09-03T21:37:53.799Z,1.23
2022-09-03T21:40:24.471Z,1.48
2022-09-03T21:43:12.940Z,1.40
2022-09-03T21:45:46.902Z,1.80
2022-09-03T21:48:26.134Z,1.67
2022-09-03T21:50:58.409Z,2.00
2022-09-03T21:53:31.819Z,1.60
2022-09-03T21:56:08.280Z,1.60
2022-09-03T21:58:54.397Z,1.60
2022-09-03T22:01:27.350Z,1.65
2022-09-03T22:03:55.978Z,1.77
2022-09-03T22:06:27.669Z,1.55
2022-09-03T22:08:57.777Z,1.50
2022-09-03T22:11:30.924Z,1.40
2022-09-03T22:14:04.559Z,1.42
2022-09-03T22:16:40.030Z,1.58
2022-09-03T22:19:07.958Z,1.48
2022-09-03T22:21:44.406Z,1.35
2022-09-03T22:24:24.635Z,1.58
2022-09-03T22:26:55.244Z,1.48
2022-09-03T22:29:29.020Z,1.50
2022-09-03T22:32:02.720Z,1.77
2022-09-03T22:34:33.204Z,1.67
2022-09-03T22:37:07.251Z,1.70
2022-09-03T22:39:37.417Z,1.25
2022-09-03T22:42:14.061Z,1.65
2022-09-03T22:44:41.642Z,1.60
2022-09-03T22:47:09.152Z,1.52
2022-09-03T22:49:59.746Z,1.80
2022-09-03T22:52:33.312Z,1.35
2022-09-03T22:55:15.244Z,1.55
2022-09-03T22:57:46.303Z,1.40
2022-09-03T23:00:13.864Z,1.50
2022-09-03T23:02:42.753Z,1.40
2022-09-03T23:05:28.350Z,1.60
2022-09-03T23:07:55.753Z,1.50
2022-09-03T23:10:34.370Z,1.40
2022-09-03T23:13:07.554Z,1.35
2022-09-03T23:15:36.871Z,1.45
2022-09-03T23:18:09.023Z,1.02
2022-09-03T23:20:40.118Z,1.50
2022-09-03T23:23:10.364Z,1.70
2022-09-03T23:25:42.243Z,1.63
2022-09-03T23:28:12.593Z,1.60
2022-09-03T23:30:41.797Z,1.60
2022-09-03T23:33:09.358Z,1.50
2022-09-03T23:35:45.047Z,1.40
2022-09-03T23:38:27.645Z,1.65
2022-09-03T23:41:00.647Z,1.30
2022-09-03T23:43:40.248Z,1.63
2022-09-03T23:46:33.997Z,1.30
2022-09-03T23:49:20.279Z,1.52
2022-09-03T23:52:05.455Z,1.65
2022-09-03T23:54:35.558Z,1.70
2022-09-03T23:57:09.713Z,1.80
2022-09-03T23:59:42.986Z,1.40
